Main page
Satellite images 15-day forecastsClimateMarine weather Cyclones Lightning AirportsFAQ Newsletter About
Weather : Europe Africa North America South America Asia Australia-Oceania Others
Languages Contact

Istanbul Sabiha Gökçen, Turkey

latitude: 40-53-55N, longitude: 029-18-33E, elevation: 95 m


METAR: LTFJ 010820Z 02018KT 6000 SCT035 BKN090 12/06 Q1022 NOSIG
TAF: LTFJ 010737Z 0107/0206 01015KT 9999 BKN030 BKN090 TEMPO 0108/0112 -SHRA PROB30 TEMPO 0112/0116 -SHRA

Time: 10:47 (08:47 UTC)

Current weather observation

The report was made 27 minutes ago, at 08:20 UTC
Wind 18 kt from the North/Northeast
Temperature 12°C
Humidity 67%
Pressure 1022 hPa
Visibility: 6000 m
Scattered clouds at a height of 3500 ft
Broken clouds at a height of 9000 ft

Change units

Forecast

The report was made 1 hour and 10 minutes ago, at 07:37 UTC
Forecast valid from 01 at 07 UTC to 02 at 06 UTC
Wind 15 kt from the North
Visibility 10 km or more
Broken clouds at a height of 3000 ft
Broken clouds at a height of 9000 ft
Temporary
from 01 at 08 UTC to 01 at 12 UTC
light rain showers
Probability 30% :
Temporary
from 01 at 12 UTC to 01 at 16 UTC
light rain showers
The information on this site is subject to a disclaimer
Weather : Europe Africa North America South America Asia Australia-Oceania Others
Satellite images 15-day forecastsClimateMarine weather Cyclones Lightning AirportsFAQ Languages Contact Newsletter About